createdAt,value
2022-12-28T00:00:27.074Z,3.55
2022-12-28T00:01:31.967Z,3.92
2022-12-28T00:02:33.431Z,3.40
2022-12-28T00:03:35.395Z,3.30
2022-12-28T00:04:36.801Z,2.90
2022-12-28T00:05:38.288Z,2.55
2022-12-28T00:06:40.161Z,2.95
2022-12-28T00:07:41.570Z,3.00
2022-12-28T00:08:43.235Z,2.85
2022-12-28T00:09:44.662Z,2.85
2022-12-28T00:11:07.516Z,2.80
2022-12-28T00:12:07.898Z,3.70
2022-12-28T00:13:09.339Z,4.63
2022-12-28T00:14:10.817Z,5.47
2022-12-28T00:15:12.334Z,13.73
2022-12-28T00:16:28.115Z,9.20
2022-12-28T00:17:29.585Z,5.60
2022-12-28T00:18:33.752Z,4.70
2022-12-28T00:19:35.205Z,3.10
2022-12-28T00:20:39.449Z,3.25
2022-12-28T00:21:42.172Z,3.05
2022-12-28T00:22:43.609Z,3.00
2022-12-28T00:23:48.006Z,3.22
2022-12-28T00:24:49.427Z,2.70
2022-12-28T00:25:51.145Z,3.88
2022-12-28T00:26:53.304Z,3.33
2022-12-28T00:27:54.699Z,2.50
2022-12-28T00:29:03.655Z,2.70
2022-12-28T00:30:06.643Z,2.55
2022-12-28T00:31:10.891Z,3.30
2022-12-28T00:32:12.869Z,3.05
2022-12-28T00:33:14.977Z,3.30
2022-12-28T00:34:16.736Z,3.30
2022-12-28T00:35:18.374Z,3.00
2022-12-28T00:36:19.893Z,3.40
2022-12-28T00:37:21.380Z,2.83
2022-12-28T00:38:23.080Z,2.80
2022-12-28T00:39:24.501Z,2.80
2022-12-28T00:40:25.992Z,3.30
2022-12-28T00:41:27.791Z,2.85
2022-12-28T00:42:29.211Z,2.90
2022-12-28T00:43:30.913Z,3.35
2022-12-28T00:44:32.323Z,2.58
2022-12-28T00:45:33.800Z,3.25
2022-12-28T00:46:35.779Z,2.80
2022-12-28T00:47:37.187Z,2.90
2022-12-28T00:48:38.641Z,2.67
2022-12-28T00:49:40.118Z,3.15
2022-12-28T00:50:42.535Z,2.92
2022-12-28T00:51:44.279Z,3.30
2022-12-28T00:52:45.748Z,3.25
2022-12-28T00:53:47.450Z,2.83
2022-12-28T00:54:48.878Z,3.67
2022-12-28T00:55:50.259Z,2.60
2022-12-28T00:56:51.990Z,2.88
2022-12-28T00:57:53.394Z,3.00
2022-12-28T00:58:59.244Z,2.50
2022-12-28T01:00:00.656Z,3.15
2022-12-28T01:01:02.967Z,3.05
2022-12-28T01:02:04.866Z,2.92
2022-12-28T01:03:06.559Z,2.70
2022-12-28T01:04:08.052Z,2.90
2022-12-28T01:05:09.743Z,3.33
2022-12-28T01:06:13.659Z,2.80
2022-12-28T01:07:15.425Z,3.40
2022-12-28T01:08:16.932Z,3.45
2022-12-28T01:09:18.386Z,2.63
2022-12-28T01:10:19.936Z,2.58
2022-12-28T01:11:27.023Z,3.67
2022-12-28T01:12:33.153Z,3.20
2022-12-28T01:13:39.675Z,2.80
2022-12-28T01:14:41.109Z,3.10
2022-12-28T01:15:42.533Z,2.75
2022-12-28T01:16:44.469Z,2.95
2022-12-28T01:17:45.933Z,3.30
2022-12-28T01:18:48.129Z,3.50
2022-12-28T01:19:53.909Z,3.72
2022-12-28T01:20:55.618Z,3.00
2022-12-28T01:21:57.983Z,3.30
2022-12-28T01:22:59.455Z,3.05
2022-12-28T01:24:03.846Z,3.30
2022-12-28T01:25:05.603Z,3.15
2022-12-28T01:26:08.012Z,3.50
2022-12-28T01:27:09.827Z,3.40
2022-12-28T01:28:11.253Z,3.50
2022-12-28T01:29:12.699Z,2.90
2022-12-28T01:30:15.271Z,3.20
2022-12-28T01:31:18.954Z,3.00
2022-12-28T01:32:20.750Z,3.50
2022-12-28T01:33:22.241Z,3.15
2022-12-28T01:34:23.722Z,3.05
2022-12-28T01:35:26.147Z,3.28
2022-12-28T01:36:31.794Z,2.88
2022-12-28T01:37:33.305Z,2.95
2022-12-28T01:38:35.731Z,2.80
2022-12-28T01:39:37.165Z,2.95
2022-12-28T01:40:43.113Z,2.80
2022-12-28T01:41:45.028Z,3.80
2022-12-28T01:42:46.468Z,3.38
2022-12-28T01:44:07.811Z,3.78
2022-12-28T01:45:20.283Z,3.25
2022-12-28T01:46:35.202Z,3.60
2022-12-28T01:47:36.752Z,3.85
2022-12-28T01:48:45.999Z,3.63
2022-12-28T01:50:49.951Z,3.50
2022-12-28T01:52:10.014Z,3.83
2022-12-28T01:53:11.505Z,3.10
2022-12-28T01:54:13.506Z,3.70
2022-12-28T01:55:15.002Z,3.35
2022-12-28T01:56:16.508Z,3.45
2022-12-28T01:57:22.219Z,3.70
2022-12-28T01:58:28.488Z,3.58
2022-12-28T01:59:33.595Z,3.25
2022-12-28T02:00:35.596Z,3.08
2022-12-28T02:01:37.757Z,4.10
2022-12-28T02:02:45.438Z,3.63
2022-12-28T02:03:47.285Z,3.28
2022-12-28T02:04:49.499Z,3.83
2022-12-28T02:05:53.987Z,3.80
2022-12-28T02:06:55.874Z,3.97
2022-12-28T02:08:11.729Z,3.60
2022-12-28T02:09:39.917Z,3.90
2022-12-28T02:10:45.754Z,4.63
2022-12-28T02:11:49.156Z,3.92
2022-12-28T02:13:54.693Z,4.07
2022-12-28T02:14:56.332Z,3.45
2022-12-28T02:15:58.175Z,4.18
2022-12-28T02:17:00.119Z,3.88
2022-12-28T02:18:02.238Z,3.75
2022-12-28T02:19:05.455Z,4.72
2022-12-28T02:20:08.428Z,3.83
2022-12-28T02:21:10.007Z,3.50
2022-12-28T02:22:25.143Z,4.20
2022-12-28T02:23:39.888Z,4.50
2022-12-28T02:25:13.164Z,3.70
2022-12-28T02:26:21.146Z,4.47
2022-12-28T02:27:34.847Z,4.45
2022-12-28T02:28:57.649Z,4.45
2022-12-28T02:30:08.376Z,4.30
2022-12-28T02:31:18.789Z,4.55
2022-12-28T02:32:35.080Z,3.85
2022-12-28T02:33:44.496Z,4.75
2022-12-28T02:34:58.849Z,4.20
2022-12-28T02:36:12.977Z,4.05
2022-12-28T02:37:30.878Z,4.30
2022-12-28T02:39:02.828Z,4.60
2022-12-28T02:40:27.642Z,4.68
2022-12-28T02:41:32.093Z,4.50
2022-12-28T02:42:36.706Z,5.15
2022-12-28T02:43:38.330Z,4.95
2022-12-28T02:44:58.427Z,5.07
2022-12-28T02:46:36.385Z,4.25
2022-12-28T02:48:01.310Z,4.82
2022-12-28T02:49:34.804Z,4.63
2022-12-28T02:50:50.756Z,4.20
2022-12-28T02:52:26.648Z,5.05
2022-12-28T02:53:42.928Z,4.60
2022-12-28T02:55:40.927Z,4.38
2022-12-28T02:56:56.387Z,5.18
2022-12-28T02:58:19.163Z,5.43
2022-12-28T02:59:42.761Z,4.20
2022-12-28T03:00:57.191Z,4.97
2022-12-28T03:02:16.154Z,4.75
2022-12-28T03:03:42.046Z,5.88
2022-12-28T03:04:56.340Z,4.25
2022-12-28T03:06:34.085Z,4.38
2022-12-28T03:08:20.077Z,4.82
2022-12-28T03:11:00.112Z,4.93
2022-12-28T03:12:19.896Z,5.00
2022-12-28T03:13:43.327Z,5.10
2022-12-28T03:14:48.945Z,5.15
2022-12-28T03:15:50.835Z,4.68
2022-12-28T03:17:14.119Z,4.80
2022-12-28T03:18:37.995Z,5.72
2022-12-28T03:20:05.036Z,4.97
2022-12-28T03:21:28.878Z,5.13
2022-12-28T03:22:53.025Z,4.72
2022-12-28T03:24:14.541Z,5.53
2022-12-28T03:27:02.238Z,5.53
2022-12-28T03:28:25.678Z,5.45
2022-12-28T03:29:48.677Z,4.93
2022-12-28T03:31:06.654Z,5.68
2022-12-28T03:32:09.114Z,5.65
2022-12-28T03:33:11.808Z,6.25
2022-12-28T03:34:14.505Z,5.45
2022-12-28T03:35:17.223Z,5.45
2022-12-28T03:36:30.707Z,5.57
2022-12-28T03:37:35.093Z,6.07
2022-12-28T03:39:00.397Z,5.57
2022-12-28T03:40:29.728Z,5.82
2022-12-28T03:41:36.956Z,4.80
2022-12-28T03:43:03.621Z,5.30
2022-12-28T03:44:26.512Z,5.47
2022-12-28T03:45:49.873Z,6.22
2022-12-28T03:47:05.880Z,5.13
2022-12-28T03:48:08.191Z,5.35
2022-12-28T03:49:09.851Z,5.43
2022-12-28T03:50:12.524Z,5.25
2022-12-28T03:51:15.987Z,6.63
2022-12-28T03:52:18.060Z,5.63
2022-12-28T03:53:25.086Z,5.40
2022-12-28T03:54:26.526Z,5.85
2022-12-28T03:55:28.331Z,5.90
2022-12-28T03:56:29.816Z,5.78
2022-12-28T03:57:31.635Z,6.45
2022-12-28T03:58:33.060Z,6.68
2022-12-28T03:59:34.494Z,6.13
2022-12-28T04:00:35.935Z,5.30
2022-12-28T04:01:37.434Z,5.60
2022-12-28T04:02:39.379Z,5.45
2022-12-28T04:03:41.653Z,7.05
2022-12-28T04:04:43.105Z,6.13
2022-12-28T04:05:44.525Z,5.88
2022-12-28T04:06:45.926Z,6.60
2022-12-28T04:07:47.690Z,6.70
2022-12-28T04:08:49.214Z,6.45
2022-12-28T04:09:50.699Z,6.00
2022-12-28T04:10:52.188Z,6.55
2022-12-28T04:11:53.647Z,6.95
2022-12-28T04:12:57.069Z,6.35
2022-12-28T04:13:58.605Z,5.70
2022-12-28T04:14:59.999Z,6.65
2022-12-28T04:16:07.840Z,6.10
2022-12-28T04:17:09.339Z,6.57
2022-12-28T04:18:11.173Z,5.68
2022-12-28T04:19:12.668Z,5.90
2022-12-28T04:20:14.189Z,5.75
2022-12-28T04:21:16.076Z,6.15
2022-12-28T04:22:17.525Z,6.32
2022-12-28T04:23:19.062Z,5.22
2022-12-28T04:24:20.458Z,6.28
2022-12-28T04:25:21.965Z,6.00
2022-12-28T04:26:23.445Z,6.93
2022-12-28T04:27:24.866Z,6.43
2022-12-28T04:28:26.861Z,7.13
2022-12-28T04:29:28.273Z,6.38
2022-12-28T04:30:29.682Z,6.35
2022-12-28T04:31:31.202Z,6.18
2022-12-28T04:32:32.622Z,7.75
2022-12-28T04:33:36.623Z,5.50
2022-12-28T04:34:40.911Z,6.25
2022-12-28T04:35:46.425Z,6.47
2022-12-28T04:36:47.863Z,6.90
2022-12-28T04:37:49.639Z,6.90
2022-12-28T04:38:52.033Z,6.25
2022-12-28T04:39:55.298Z,6.15
2022-12-28T04:40:58.441Z,6.53
2022-12-28T04:41:59.959Z,7.07
2022-12-28T04:43:01.811Z,6.50
2022-12-28T04:44:03.243Z,6.65
2022-12-28T04:45:05.158Z,7.03
2022-12-28T04:46:10.557Z,7.03
2022-12-28T04:47:12.080Z,6.47
2022-12-28T04:48:13.837Z,6.90
2022-12-28T04:49:15.368Z,6.00
2022-12-28T04:50:16.830Z,6.68
2022-12-28T04:51:26.900Z,6.03
2022-12-28T04:52:28.665Z,6.18
2022-12-28T04:53:30.071Z,6.03
2022-12-28T04:54:31.534Z,7.25
2022-12-28T04:55:34.314Z,5.93
2022-12-28T04:56:35.908Z,6.43
2022-12-28T04:57:37.673Z,6.25
2022-12-28T04:58:39.737Z,6.20
2022-12-28T04:59:41.184Z,6.28
2022-12-28T05:00:42.965Z,5.80
2022-12-28T05:01:44.546Z,6.70
2022-12-28T05:02:46.593Z,6.63
2022-12-28T05:03:55.489Z,6.32
2022-12-28T05:04:57.869Z,6.30
2022-12-28T05:06:03.743Z,6.80
2022-12-28T05:07:05.151Z,6.68
2022-12-28T05:08:06.943Z,6.55
2022-12-28T05:09:08.388Z,6.47
2022-12-28T05:10:09.822Z,6.43
2022-12-28T05:11:14.733Z,6.20
2022-12-28T05:12:16.196Z,6.30
2022-12-28T05:13:17.950Z,6.15
2022-12-28T05:14:19.382Z,6.38
2022-12-28T05:15:21.032Z,6.72
2022-12-28T05:16:24.305Z,6.53
2022-12-28T05:17:25.817Z,6.22
2022-12-28T05:18:27.749Z,6.20
2022-12-28T05:19:29.241Z,7.03
2022-12-28T05:20:30.643Z,5.90
2022-12-28T05:21:32.243Z,6.68
2022-12-28T05:22:39.096Z,6.32
2022-12-28T05:23:42.840Z,5.68
2022-12-28T05:24:44.307Z,5.93
2022-12-28T05:25:52.937Z,6.88
2022-12-28T05:26:54.360Z,5.57
2022-12-28T05:27:56.190Z,6.00
2022-12-28T05:28:59.072Z,6.95
2022-12-28T05:31:04.466Z,6.50
2022-12-28T05:32:06.292Z,5.82
2022-12-28T05:33:07.740Z,5.78
2022-12-28T05:34:09.174Z,6.05
2022-12-28T05:35:10.597Z,6.30
2022-12-28T05:36:15.085Z,6.00
2022-12-28T05:37:21.828Z,6.85
2022-12-28T05:38:24.099Z,6.32
2022-12-28T05:39:25.535Z,5.97
2022-12-28T05:40:27.137Z,5.47
2022-12-28T05:41:29.543Z,6.45
2022-12-28T05:42:30.981Z,5.70
2022-12-28T05:43:33.525Z,6.20
2022-12-28T05:44:34.966Z,6.20
2022-12-28T05:45:36.383Z,6.13
2022-12-28T05:46:37.834Z,5.82
2022-12-28T05:47:39.280Z,6.03
2022-12-28T05:48:43.269Z,6.68
2022-12-28T05:49:44.678Z,5.47
2022-12-28T05:50:46.096Z,5.80
2022-12-28T05:51:53.198Z,7.00
2022-12-28T05:52:54.682Z,6.28
2022-12-28T05:53:58.393Z,5.82
2022-12-28T05:54:59.790Z,5.63
2022-12-28T05:56:08.219Z,5.80
2022-12-28T05:57:12.122Z,6.10
2022-12-28T05:58:13.843Z,6.05
2022-12-28T05:59:15.238Z,6.43
2022-12-28T06:00:17.443Z,6.07
2022-12-28T06:01:21.587Z,5.80
2022-12-28T06:02:25.681Z,7.15
2022-12-28T06:03:27.613Z,6.15
2022-12-28T06:04:29.231Z,6.57
2022-12-28T06:05:30.677Z,6.05
2022-12-28T06:06:33.204Z,6.10
2022-12-28T06:07:34.642Z,5.97
2022-12-28T06:08:37.841Z,5.72
2022-12-28T06:09:39.296Z,5.28
2022-12-28T06:10:40.748Z,5.53
2022-12-28T06:11:42.443Z,5.45
2022-12-28T06:12:43.899Z,6.13
2022-12-28T06:13:46.380Z,5.90
2022-12-28T06:14:47.843Z,6.65
2022-12-28T06:15:49.262Z,6.40
2022-12-28T06:16:51.612Z,6.47
2022-12-28T06:17:53.570Z,6.30
2022-12-28T06:18:55.603Z,6.05
2022-12-28T06:19:57.039Z,5.82
2022-12-28T06:21:11.041Z,5.90
2022-12-28T06:22:12.449Z,6.63
2022-12-28T06:23:13.886Z,6.13
2022-12-28T06:24:15.407Z,5.53
2022-12-28T06:25:16.832Z,6.05
2022-12-28T06:26:20.745Z,5.78
2022-12-28T06:27:22.191Z,5.53
2022-12-28T06:28:23.610Z,6.78
2022-12-28T06:29:25.051Z,6.07
2022-12-28T06:30:26.464Z,5.35
2022-12-28T06:31:30.858Z,5.70
2022-12-28T06:32:32.650Z,6.53
2022-12-28T06:33:34.985Z,5.18
2022-12-28T06:34:36.679Z,5.57
2022-12-28T06:35:41.231Z,6.55
2022-12-28T06:36:44.481Z,6.47
2022-12-28T06:37:47.878Z,6.10
2022-12-28T06:38:50.337Z,6.47
2022-12-28T06:39:51.857Z,5.78
2022-12-28T06:41:12.716Z,5.90
2022-12-28T06:42:15.117Z,6.10
2022-12-28T06:43:16.917Z,5.32
2022-12-28T06:44:18.667Z,6.07
2022-12-28T06:45:20.127Z,5.38
2022-12-28T06:46:23.718Z,6.18
2022-12-28T06:47:25.121Z,5.65
2022-12-28T06:48:27.059Z,6.03
2022-12-28T06:49:28.779Z,5.75
2022-12-28T06:50:33.107Z,6.10
2022-12-28T06:51:42.161Z,5.93
2022-12-28T06:52:43.843Z,5.50
2022-12-28T06:53:46.116Z,5.47
2022-12-28T06:54:47.909Z,6.47
2022-12-28T06:55:57.737Z,6.68
2022-12-28T06:56:59.162Z,5.70
2022-12-28T06:58:00.574Z,5.82
2022-12-28T06:59:03.986Z,5.75
2022-12-28T07:00:06.960Z,5.60
2022-12-28T07:01:11.821Z,6.05
2022-12-28T07:02:13.506Z,6.18
2022-12-28T07:03:15.078Z,6.53
2022-12-28T07:04:16.865Z,5.05
2022-12-28T07:05:18.275Z,5.75
2022-12-28T07:06:21.381Z,5.45
2022-12-28T07:07:22.800Z,5.80
2022-12-28T07:08:24.241Z,6.60
2022-12-28T07:09:25.974Z,6.80
2022-12-28T07:10:27.373Z,6.18
2022-12-28T07:11:29.670Z,5.72
2022-12-28T07:12:31.124Z,6.28
2022-12-28T07:13:33.349Z,5.82
2022-12-28T07:14:34.793Z,5.75
2022-12-28T07:15:36.784Z,5.13
2022-12-28T07:17:38.503Z,6.13
2022-12-28T07:18:40.667Z,6.10
2022-12-28T07:19:42.457Z,6.07
2022-12-28T07:20:43.871Z,5.75
2022-12-28T07:21:45.321Z,6.03
2022-12-28T07:22:46.764Z,7.22
2022-12-28T07:23:50.084Z,5.97
2022-12-28T07:24:51.510Z,6.03
2022-12-28T07:25:52.892Z,5.82
2022-12-28T07:26:54.295Z,5.63
2022-12-28T07:27:55.750Z,6.22
2022-12-28T07:28:59.439Z,5.95
2022-12-28T07:30:00.869Z,6.07
2022-12-28T07:31:06.857Z,5.50
2022-12-28T07:32:08.298Z,6.07
2022-12-28T07:33:09.749Z,6.45
2022-12-28T07:34:12.415Z,5.88
2022-12-28T07:35:13.843Z,5.90
2022-12-28T07:36:17.943Z,8.68
2022-12-28T07:37:19.381Z,7.43
2022-12-28T07:38:21.732Z,6.85
2022-12-28T07:39:23.634Z,6.15
2022-12-28T07:40:25.119Z,6.07
2022-12-28T07:41:29.808Z,5.45
2022-12-28T07:42:31.720Z,5.28
2022-12-28T07:43:33.639Z,5.85
2022-12-28T07:44:38.170Z,6.47
2022-12-28T07:45:39.893Z,5.82
2022-12-28T07:46:41.498Z,6.05
2022-12-28T07:47:42.986Z,6.40
2022-12-28T07:48:45.094Z,5.90
2022-12-28T07:49:46.523Z,7.50
2022-12-28T07:50:47.941Z,5.80
2022-12-28T07:51:49.463Z,6.13
2022-12-28T07:52:50.899Z,6.47
2022-12-28T07:53:53.567Z,5.78
2022-12-28T07:54:55.302Z,5.82
2022-12-28T07:56:00.752Z,6.03
2022-12-28T07:57:02.220Z,5.40
2022-12-28T07:58:03.646Z,6.30
2022-12-28T07:59:06.678Z,6.10
2022-12-28T08:01:12.898Z,6.30
2022-12-28T08:02:15.454Z,6.40
2022-12-28T08:03:18.656Z,6.47
2022-12-28T08:04:20.708Z,6.03
2022-12-28T08:05:22.160Z,5.93
2022-12-28T08:06:24.685Z,7.25
2022-12-28T08:07:26.279Z,6.00
2022-12-28T08:08:27.695Z,6.50
2022-12-28T08:09:29.460Z,7.15
2022-12-28T08:10:30.928Z,6.78
2022-12-28T08:11:36.093Z,7.80
2022-12-28T08:12:37.512Z,6.28
2022-12-28T08:13:41.795Z,6.50
2022-12-28T08:14:43.598Z,6.50
2022-12-28T08:15:54.317Z,6.65
2022-12-28T08:16:55.726Z,6.75
2022-12-28T08:17:57.139Z,7.05
2022-12-28T08:18:59.314Z,6.90
2022-12-28T08:20:00.724Z,7.68
2022-12-28T08:21:13.772Z,9.00
2022-12-28T08:22:15.190Z,7.30
2022-12-28T08:23:16.667Z,7.90
2022-12-28T08:24:20.082Z,8.15
2022-12-28T08:25:21.546Z,7.65
2022-12-28T08:26:28.885Z,7.65
2022-12-28T08:27:36.568Z,7.25
2022-12-28T08:28:41.728Z,6.90
2022-12-28T08:29:43.571Z,6.90
2022-12-28T08:30:45.065Z,7.05
2022-12-28T08:31:47.067Z,5.80
2022-12-28T08:32:48.509Z,7.40
2022-12-28T08:33:50.254Z,6.60
2022-12-28T08:34:52.068Z,6.60
2022-12-28T08:35:56.820Z,7.20
2022-12-28T08:36:58.218Z,7.15
2022-12-28T08:37:59.661Z,6.03
2022-12-28T08:39:02.145Z,5.88
2022-12-28T08:40:04.323Z,6.38
2022-12-28T08:41:07.772Z,6.13
2022-12-28T08:42:09.178Z,6.65
2022-12-28T08:43:11.001Z,6.93
2022-12-28T08:44:12.439Z,6.70
2022-12-28T08:45:14.214Z,5.53
2022-12-28T08:46:20.803Z,6.10
2022-12-28T08:47:22.285Z,7.60
2022-12-28T08:48:23.778Z,7.20
2022-12-28T08:49:25.710Z,5.93
2022-12-28T08:50:31.536Z,7.05
2022-12-28T08:51:36.165Z,6.90
2022-12-28T08:52:37.627Z,6.70
2022-12-28T08:53:40.007Z,6.97
2022-12-28T08:54:41.801Z,6.80
2022-12-28T08:55:43.263Z,7.63
2022-12-28T08:56:46.122Z,7.05
2022-12-28T08:57:47.543Z,6.18
2022-12-28T08:58:49.917Z,6.03
2022-12-28T08:59:51.353Z,6.00
2022-12-28T09:00:52.903Z,5.57
2022-12-28T09:01:54.495Z,6.82
2022-12-28T09:02:59.472Z,5.90
2022-12-28T09:04:01.540Z,6.05
2022-12-28T09:05:03.398Z,6.55
2022-12-28T09:06:07.166Z,5.95
2022-12-28T09:07:08.585Z,6.00
2022-12-28T09:08:10.013Z,5.95
2022-12-28T09:09:16.025Z,6.47
2022-12-28T09:10:17.885Z,6.53
2022-12-28T09:11:19.746Z,5.65
2022-12-28T09:12:21.137Z,6.07
2022-12-28T09:13:22.566Z,6.28
2022-12-28T09:14:24.819Z,5.65
2022-12-28T09:15:26.417Z,5.93
2022-12-28T09:16:28.653Z,7.15
2022-12-28T09:17:30.086Z,5.97
2022-12-28T09:18:32.176Z,6.30
2022-12-28T09:19:33.694Z,6.25
2022-12-28T09:20:35.232Z,6.10
2022-12-28T09:21:38.348Z,6.20
2022-12-28T09:22:39.766Z,6.50
2022-12-28T09:23:42.052Z,6.07
2022-12-28T09:24:43.512Z,5.88
2022-12-28T09:25:45.107Z,6.25
2022-12-28T09:26:46.621Z,6.97
2022-12-28T09:27:53.347Z,6.30
2022-12-28T09:28:58.450Z,5.88
2022-12-28T09:29:59.880Z,5.93
2022-12-28T09:31:09.018Z,5.68
2022-12-28T09:32:10.439Z,5.68
2022-12-28T09:33:30.638Z,5.20
2022-12-28T09:34:36.238Z,5.50
2022-12-28T09:35:38.908Z,6.13
2022-12-28T09:36:43.075Z,5.65
2022-12-28T09:37:45.101Z,5.47
2022-12-28T09:38:47.824Z,5.68
2022-12-28T09:39:49.376Z,5.82
2022-12-28T09:40:51.068Z,6.45
2022-12-28T09:41:57.743Z,5.75
2022-12-28T09:42:59.291Z,5.35
2022-12-28T09:44:12.990Z,5.30
2022-12-28T09:45:16.225Z,5.30
2022-12-28T09:46:21.134Z,5.10
2022-12-28T09:47:29.130Z,5.13
2022-12-28T09:48:31.138Z,4.85
2022-12-28T09:49:38.404Z,4.90
2022-12-28T09:50:40.223Z,5.38
2022-12-28T09:52:07.671Z,5.05
2022-12-28T09:53:23.118Z,5.22
2022-12-28T09:54:24.644Z,4.75
2022-12-28T09:55:27.864Z,5.15
2022-12-28T09:56:41.573Z,5.18
2022-12-28T09:57:53.230Z,5.18
2022-12-28T09:58:55.212Z,4.80
2022-12-28T09:59:57.332Z,5.57
2022-12-28T10:01:02.423Z,5.13
2022-12-28T10:02:04.887Z,5.60
2022-12-28T10:03:23.897Z,5.18
2022-12-28T10:04:25.411Z,5.80
2022-12-28T10:05:28.176Z,5.35
2022-12-28T10:06:36.757Z,4.88
2022-12-28T10:07:38.224Z,5.30
2022-12-28T10:08:46.017Z,5.50
2022-12-28T10:09:47.972Z,5.00
2022-12-28T10:10:51.847Z,5.82
2022-12-28T10:11:53.583Z,5.32
2022-12-28T10:12:55.369Z,5.35
2022-12-28T10:14:02.418Z,5.68
2022-12-28T10:15:06.964Z,4.88
2022-12-28T10:16:17.188Z,4.75
2022-12-28T10:17:22.746Z,5.00
2022-12-28T10:18:28.055Z,4.72
2022-12-28T10:19:29.793Z,5.45
2022-12-28T10:20:32.785Z,4.93
2022-12-28T10:22:41.517Z,5.10
2022-12-28T10:25:18.811Z,4.88
2022-12-28T10:26:21.300Z,4.63
2022-12-28T10:27:25.457Z,5.28
2022-12-28T10:28:48.903Z,5.10
2022-12-28T10:29:52.779Z,5.40
2022-12-28T10:31:12.099Z,4.65
2022-12-28T10:32:13.679Z,4.93
2022-12-28T10:33:19.436Z,4.50
2022-12-28T10:34:22.604Z,4.78
2022-12-28T10:35:33.497Z,5.05
2022-12-28T10:36:35.050Z,4.72
2022-12-28T10:37:44.622Z,4.82
2022-12-28T10:38:52.307Z,4.90
2022-12-28T10:40:00.362Z,4.75
2022-12-28T10:41:10.255Z,5.28
2022-12-28T10:42:22.923Z,5.78
2022-12-28T10:43:28.185Z,4.90
2022-12-28T10:44:40.952Z,7.13
2022-12-28T10:45:49.541Z,6.63
2022-12-28T10:47:00.673Z,4.85
2022-12-28T10:48:09.303Z,4.82
2022-12-28T10:49:15.927Z,4.65
2022-12-28T10:50:52.287Z,5.38
2022-12-28T10:52:19.651Z,4.93
2022-12-28T10:53:42.571Z,4.13
2022-12-28T10:54:50.264Z,4.70
2022-12-28T10:56:14.459Z,4.78
2022-12-28T10:57:27.795Z,4.63
2022-12-28T10:58:31.083Z,5.05
2022-12-28T10:59:33.555Z,3.97
2022-12-28T11:00:35.346Z,5.25
2022-12-28T11:01:37.515Z,4.20
2022-12-28T11:02:39.156Z,4.40
2022-12-28T11:04:05.145Z,4.10
2022-12-28T11:05:20.583Z,4.63
2022-12-28T11:06:27.519Z,4.75
2022-12-28T11:07:38.266Z,4.50
2022-12-28T11:08:41.114Z,6.05
2022-12-28T11:09:42.565Z,5.00
2022-12-28T11:10:43.968Z,4.78
2022-12-28T11:11:47.125Z,4.32
2022-12-28T11:12:49.700Z,4.35
2022-12-28T11:14:03.931Z,4.38
2022-12-28T11:15:06.289Z,4.20
2022-12-28T11:16:13.229Z,4.70
2022-12-28T11:17:23.850Z,4.25
2022-12-28T11:18:25.478Z,4.72
2022-12-28T11:19:27.339Z,4.00
2022-12-28T11:20:33.827Z,3.90
2022-12-28T11:21:36.249Z,3.78
2022-12-28T11:22:37.711Z,4.03
2022-12-28T11:23:39.351Z,4.00
2022-12-28T11:24:41.308Z,3.72
2022-12-28T11:25:42.757Z,4.30
2022-12-28T11:26:48.056Z,4.03
2022-12-28T11:27:49.596Z,3.47
2022-12-28T11:28:52.978Z,4.00
2022-12-28T11:29:56.024Z,3.92
2022-12-28T11:30:57.756Z,3.53
2022-12-28T11:32:15.482Z,3.40
2022-12-28T11:33:40.705Z,3.28
2022-12-28T11:34:42.544Z,3.88
2022-12-28T11:35:44.678Z,3.30
2022-12-28T11:36:47.497Z,3.10
2022-12-28T11:37:54.355Z,3.17
2022-12-28T11:38:57.040Z,3.38
2022-12-28T11:39:59.333Z,3.25
2022-12-28T11:41:00.761Z,3.33
2022-12-28T11:42:37.238Z,3.70
2022-12-28T11:43:30.398Z,3.10
2022-12-28T11:44:34.866Z,3.20
2022-12-28T11:45:54.826Z,3.10
2022-12-28T11:47:03.304Z,3.70
2022-12-28T11:48:37.928Z,3.70
2022-12-28T11:49:39.389Z,3.13
2022-12-28T11:50:42.548Z,2.90
2022-12-28T11:51:44.005Z,2.90
2022-12-28T11:52:49.464Z,3.13
2022-12-28T11:53:55.516Z,3.30
2022-12-28T11:55:00.200Z,2.78
2022-12-28T11:56:04.694Z,2.72
2022-12-28T11:57:08.166Z,2.78
2022-12-28T11:58:31.461Z,2.80
2022-12-28T11:59:35.600Z,3.25
2022-12-28T12:00:40.218Z,3.05
2022-12-28T12:01:42.910Z,2.72
2022-12-28T12:02:58.453Z,2.97
2022-12-28T12:03:59.979Z,2.58
2022-12-28T12:05:36.937Z,2.80
2022-12-28T12:06:44.780Z,2.30
2022-12-28T12:07:47.836Z,2.58
2022-12-28T12:08:50.581Z,3.70
2022-12-28T12:10:20.940Z,2.70
2022-12-28T12:11:24.998Z,2.30
2022-12-28T12:12:29.431Z,2.38
2022-12-28T12:13:30.811Z,3.00
2022-12-28T12:14:44.290Z,2.38
2022-12-28T12:15:46.918Z,2.90
2022-12-28T12:16:52.006Z,2.63
2022-12-28T12:18:14.135Z,2.90
2022-12-28T12:19:32.455Z,2.85
2022-12-28T12:20:50.629Z,2.75
2022-12-28T12:22:10.217Z,2.45
2022-12-28T12:23:29.614Z,2.83
2022-12-28T12:24:41.365Z,3.05
2022-12-28T12:25:46.826Z,2.92
2022-12-28T12:26:58.586Z,2.40
2022-12-28T12:28:16.739Z,2.35
2022-12-28T12:29:38.235Z,2.50
2022-12-28T12:30:43.033Z,2.30
2022-12-28T12:31:48.641Z,2.80
2022-12-28T12:33:00.545Z,2.40
2022-12-28T12:34:29.738Z,2.22
2022-12-28T12:35:38.669Z,2.40
2022-12-28T12:37:05.831Z,2.13
2022-12-28T12:38:29.501Z,2.28
2022-12-28T12:39:53.722Z,2.50
2022-12-28T12:41:01.259Z,2.53
2022-12-28T12:42:38.025Z,2.50
2022-12-28T12:43:54.596Z,2.45
2022-12-28T12:45:28.126Z,2.50
2022-12-28T12:46:41.222Z,2.20
2022-12-28T12:47:51.555Z,2.40
2022-12-28T12:49:20.899Z,2.10
2022-12-28T12:50:33.540Z,2.30
2022-12-28T12:51:57.757Z,2.50
2022-12-28T12:53:18.005Z,2.10
2022-12-28T12:54:30.480Z,2.50
2022-12-28T12:55:44.435Z,2.50
2022-12-28T12:57:18.330Z,2.35
2022-12-28T12:58:47.070Z,2.50
2022-12-28T13:00:10.699Z,2.30
2022-12-28T13:01:15.329Z,2.00
2022-12-28T13:02:29.962Z,2.40
2022-12-28T13:03:41.763Z,2.47
2022-12-28T13:04:46.132Z,2.25
2022-12-28T13:05:54.061Z,2.30
2022-12-28T13:07:00.456Z,2.50
2022-12-28T13:08:02.116Z,2.10
2022-12-28T13:09:06.435Z,2.50
2022-12-28T13:10:16.051Z,2.50
2022-12-28T13:11:20.171Z,2.28
2022-12-28T13:12:23.222Z,2.15
2022-12-28T13:13:34.519Z,2.20
2022-12-28T13:14:35.998Z,2.70
2022-12-28T13:15:37.520Z,2.63
2022-12-28T13:16:39.411Z,2.90
2022-12-28T13:18:11.217Z,2.40
2022-12-28T13:19:25.796Z,2.55
2022-12-28T13:20:27.318Z,2.30
2022-12-28T13:21:40.414Z,2.55
2022-12-28T13:22:42.537Z,2.25
2022-12-28T13:23:45.350Z,2.60
2022-12-28T13:24:46.909Z,2.50
2022-12-28T13:25:51.904Z,2.83
2022-12-28T13:26:55.982Z,2.20
2022-12-28T13:27:59.782Z,2.35
2022-12-28T13:29:08.098Z,2.15
2022-12-28T13:30:17.684Z,2.50
2022-12-28T13:31:22.530Z,2.80
2022-12-28T13:32:34.218Z,2.08
2022-12-28T13:33:39.064Z,2.53
2022-12-28T13:34:50.175Z,2.60
2022-12-28T13:36:05.885Z,2.17
2022-12-28T13:37:16.318Z,2.83
2022-12-28T13:38:18.784Z,2.60
2022-12-28T13:39:21.453Z,2.60
2022-12-28T13:40:22.893Z,2.67
2022-12-28T13:41:26.831Z,2.65
2022-12-28T13:42:36.976Z,2.80
2022-12-28T13:44:13.821Z,2.72
2022-12-28T13:45:18.390Z,2.42
2022-12-28T13:46:21.319Z,2.30
2022-12-28T13:48:35.098Z,2.20
2022-12-28T13:49:47.987Z,2.80
2022-12-28T13:50:49.993Z,2.88
2022-12-28T13:51:53.663Z,2.45
2022-12-28T13:53:18.015Z,2.97
2022-12-28T13:54:19.832Z,2.22
2022-12-28T13:55:29.147Z,2.80
2022-12-28T13:56:33.502Z,2.42
2022-12-28T13:57:47.473Z,2.60
2022-12-28T13:59:02.893Z,2.47
2022-12-28T14:00:06.041Z,2.95
2022-12-28T14:01:15.777Z,2.85
2022-12-28T14:02:20.793Z,2.60
2022-12-28T14:03:23.005Z,2.58
2022-12-28T14:04:51.791Z,2.53
2022-12-28T14:05:51.376Z,2.60
2022-12-28T14:06:52.973Z,2.80
2022-12-28T14:07:56.328Z,2.40
2022-12-28T14:09:03.834Z,2.60
2022-12-28T14:10:07.859Z,2.13
2022-12-28T14:11:10.983Z,2.60
2022-12-28T14:12:13.562Z,2.65
2022-12-28T14:13:18.075Z,2.17
2022-12-28T14:14:19.556Z,2.42
2022-12-28T14:15:21.234Z,2.70
2022-12-28T14:16:24.249Z,2.35
2022-12-28T14:18:30.172Z,2.42
2022-12-28T14:19:31.879Z,2.30
2022-12-28T14:20:46.722Z,2.97
2022-12-28T14:21:48.659Z,2.45
2022-12-28T14:22:50.089Z,2.17
2022-12-28T14:24:03.591Z,2.30
2022-12-28T14:25:07.908Z,2.38
2022-12-28T14:26:19.959Z,2.40
2022-12-28T14:27:21.447Z,2.70
2022-12-28T14:28:26.655Z,2.63
2022-12-28T14:29:34.040Z,2.90
2022-12-28T14:30:41.716Z,2.90
2022-12-28T14:31:43.927Z,2.60
2022-12-28T14:32:45.468Z,2.58
2022-12-28T14:33:53.337Z,2.60
2022-12-28T14:34:59.377Z,2.60
2022-12-28T14:36:03.265Z,2.55
2022-12-28T14:37:06.887Z,2.58
2022-12-28T14:38:18.060Z,2.63
2022-12-28T14:39:27.059Z,2.88
2022-12-28T14:40:34.392Z,2.80
2022-12-28T14:41:40.758Z,2.50
2022-12-28T14:42:42.251Z,2.30
2022-12-28T14:43:44.797Z,2.63
2022-12-28T14:44:49.648Z,2.60
2022-12-28T14:46:07.646Z,2.60
2022-12-28T14:47:45.621Z,2.58
2022-12-28T14:48:47.222Z,2.40
2022-12-28T14:49:48.769Z,2.85
2022-12-28T14:51:24.382Z,2.42
2022-12-28T14:52:34.883Z,2.50
2022-12-28T14:53:36.327Z,2.70